sensor_id;sensor_type;location;lat;lon;timestamp;pressure;altitude;pressure_sealevel;temperature;humidity
48029;BME280;33808;37.368;127.108;2023-03-13T00:01:45;101550.09;;;1.35;nan
48029;BME280;33808;37.368;127.108;2023-03-13T00:04:15;101543.22;;;1.36;nan
48029;BME280;33808;37.368;127.108;2023-03-13T00:06:45;101568.31;;;1.48;nan
48029;BME280;33808;37.368;127.108;2023-03-13T00:11:45;101680.22;;;1.62;nan
48029;BME280;33808;37.368;127.108;2023-03-13T00:14:15;101542.47;;;1.42;nan
48029;BME280;33808;37.368;127.108;2023-03-13T00:16:44;101547.44;;;1.78;nan
48029;BME280;33808;37.368;127.108;2023-03-13T00:19:14;101552.41;;;1.23;nan
48029;BME280;33808;37.368;127.108;2023-03-13T00:21:44;101541.03;;;1.56;nan
48029;BME280;33808;37.368;127.108;2023-03-13T00:26:43;101540.84;;;1.96;nan
48029;BME280;33808;37.368;127.108;2023-03-13T00:29:12;101552.88;;;1.95;nan
48029;BME280;33808;37.368;127.108;2023-03-13T00:31:42;101548.81;;;2.09;nan
48029;BME280;33808;37.368;127.108;2023-03-13T00:34:12;101528.53;;;1.79;nan
48029;BME280;33808;37.368;127.108;2023-03-13T00:39:10;101517.75;;;2.03;nan
48029;BME280;33808;37.368;127.108;2023-03-13T00:44:09;101512.56;;;2.00;nan
48029;BME280;33808;37.368;127.108;2023-03-13T00:51:36;101500.13;;;1.74;nan
48029;BME280;33808;37.368;127.108;2023-03-13T00:54:06;101509.88;;;1.92;nan
48029;BME280;33808;37.368;127.108;2023-03-13T00:56:36;101502.56;;;1.67;nan
48029;BME280;33808;37.368;127.108;2023-03-13T00:59:05;101620.34;;;1.72;nan
48029;BME280;33808;37.368;127.108;2023-03-13T01:01:35;101521.69;;;2.36;nan
48029;BME280;33808;37.368;127.108;2023-03-13T01:04:10;101515.47;;;2.84;nan
48029;BME280;33808;37.368;127.108;2023-03-13T01:06:41;101508.09;;;2.48;nan
48029;BME280;33808;37.368;127.108;2023-03-13T01:09:13;101504.66;;;1.89;nan
48029;BME280;33808;37.368;127.108;2023-03-13T01:11:44;101504.16;;;2.12;nan
48029;BME280;33808;37.368;127.108;2023-03-13T01:14:16;101505.25;;;2.29;nan
48029;BME280;33808;37.368;127.108;2023-03-13T01:16:46;101506.88;;;2.21;nan
48029;BME280;33808;37.368;127.108;2023-03-13T01:19:16;101506.31;;;2.42;nan
48029;BME280;33808;37.368;127.108;2023-03-13T01:24:15;101494.88;;;2.23;nan
48029;BME280;33808;37.368;127.108;2023-03-13T01:26:45;101515.09;;;2.54;nan
48029;BME280;33808;37.368;127.108;2023-03-13T01:29:15;101508.47;;;2.74;nan
48029;BME280;33808;37.368;127.108;2023-03-13T01:31:44;101497.97;;;2.60;nan
48029;BME280;33808;37.368;127.108;2023-03-13T01:34:14;101496.75;;;2.34;nan
48029;BME280;33808;37.368;127.108;2023-03-13T01:36:44;101484.56;;;2.25;nan
48029;BME280;33808;37.368;127.108;2023-03-13T01:39:18;101490.69;;;2.33;nan
48029;BME280;33808;37.368;127.108;2023-03-13T01:41:47;101510.50;;;2.34;nan
48029;BME280;33808;37.368;127.108;2023-03-13T01:49:24;101484.00;;;3.15;nan
48029;BME280;33808;37.368;127.108;2023-03-13T01:52:05;101464.97;;;3.06;nan
48029;BME280;33808;37.368;127.108;2023-03-13T01:57:24;101446.00;;;3.04;nan
48029;BME280;33808;37.368;127.108;2023-03-13T02:00:03;101468.22;;;2.87;nan
48029;BME280;33808;37.368;127.108;2023-03-13T02:02:37;101465.06;;;3.16;nan
48029;BME280;33808;37.368;127.108;2023-03-13T02:05:08;101455.06;;;2.70;nan
48029;BME280;33808;37.368;127.108;2023-03-13T02:07:52;101443.72;;;3.37;nan
48029;BME280;33808;37.368;127.108;2023-03-13T02:15:24;101467.47;;;3.91;nan
48029;BME280;33808;37.368;127.108;2023-03-13T02:17:55;101443.34;;;3.92;nan
48029;BME280;33808;37.368;127.108;2023-03-13T02:25:43;101435.19;;;3.41;nan
48029;BME280;33808;37.368;127.108;2023-03-13T02:33:37;101430.09;;;3.53;nan
48029;BME280;33808;37.368;127.108;2023-03-13T02:38:59;101430.56;;;4.15;nan
48029;BME280;33808;37.368;127.108;2023-03-13T02:41:32;101434.19;;;4.46;nan
48029;BME280;33808;37.368;127.108;2023-03-13T02:44:03;101408.94;;;4.05;nan
48029;BME280;33808;37.368;127.108;2023-03-13T02:46:49;101413.28;;;4.07;nan
48029;BME280;33808;37.368;127.108;2023-03-13T02:49:28;101420.31;;;4.36;nan
48029;BME280;33808;37.368;127.108;2023-03-13T02:52:04;101396.94;;;4.16;nan
48029;BME280;33808;37.368;127.108;2023-03-13T02:54:39;101416.03;;;4.43;nan
48029;BME280;33808;37.368;127.108;2023-03-13T02:57:09;101412.59;;;4.47;nan
48029;BME280;33808;37.368;127.108;2023-03-13T02:59:39;101395.03;;;3.81;nan
48029;BME280;33808;37.368;127.108;2023-03-13T03:02:09;101385.63;;;3.97;nan
48029;BME280;33808;37.368;127.108;2023-03-13T03:04:39;101384.88;;;4.21;nan
48029;BME280;33808;37.368;127.108;2023-03-13T03:07:09;101391.78;;;4.25;nan
48029;BME280;33808;37.368;127.108;2023-03-13T03:09:39;101400.59;;;4.68;nan
48029;BME280;33808;37.368;127.108;2023-03-13T03:14:37;101386.88;;;5.02;nan
48029;BME280;33808;37.368;127.108;2023-03-13T03:17:07;101402.47;;;5.39;nan
48029;BME280;33808;37.368;127.108;2023-03-13T03:22:06;101380.00;;;5.17;nan
48029;BME280;33808;37.368;127.108;2023-03-13T03:24:36;101397.28;;;5.24;nan
48029;BME280;33808;37.368;127.108;2023-03-13T03:29:35;101373.84;;;4.65;nan
48029;BME280;33808;37.368;127.108;2023-03-13T03:34:34;101366.16;;;4.93;nan
48029;BME280;33808;37.368;127.108;2023-03-13T03:39:33;101345.41;;;4.75;nan
48029;BME280;33808;37.368;127.108;2023-03-13T03:42:03;101347.16;;;4.83;nan
48029;BME280;33808;37.368;127.108;2023-03-13T03:44:32;101347.13;;;4.87;nan
48029;BME280;33808;37.368;127.108;2023-03-13T03:49:31;101341.97;;;4.82;nan
48029;BME280;33808;37.368;127.108;2023-03-13T03:56:59;101348.06;;;5.26;nan
48029;BME280;33808;37.368;127.108;2023-03-13T03:59:28;101329.91;;;5.21;nan
48029;BME280;33808;37.368;127.108;2023-03-13T04:04:27;101327.31;;;5.19;nan
48029;BME280;33808;37.368;127.108;2023-03-13T04:06:57;101323.84;;;4.99;nan
48029;BME280;33808;37.368;127.108;2023-03-13T04:09:26;101324.72;;;5.10;nan
48029;BME280;33808;37.368;127.108;2023-03-13T04:11:58;101303.09;;;5.54;nan
48029;BME280;33808;37.368;127.108;2023-03-13T04:14:28;101297.06;;;5.29;nan
48029;BME280;33808;37.368;127.108;2023-03-13T04:16:57;101310.03;;;5.23;nan
48029;BME280;33808;37.368;127.108;2023-03-13T04:21:56;101299.69;;;5.06;nan
48029;BME280;33808;37.368;127.108;2023-03-13T04:24:25;101295.34;;;5.25;nan
48029;BME280;33808;37.368;127.108;2023-03-13T04:26:55;101296.19;;;5.47;nan
48029;BME280;33808;37.368;127.108;2023-03-13T04:29:25;101298.75;;;5.62;nan
48029;BME280;33808;37.368;127.108;2023-03-13T04:36:53;101277.09;;;5.82;nan
48029;BME280;33808;37.368;127.108;2023-03-13T04:39:23;101263.31;;;5.58;nan
48029;BME280;33808;37.368;127.108;2023-03-13T04:44:22;101279.69;;;5.84;nan
48029;BME280;33808;37.368;127.108;2023-03-13T04:49:21;101264.09;;;5.90;nan
48029;BME280;33808;37.368;127.108;2023-03-13T04:51:51;101260.69;;;5.81;nan
48029;BME280;33808;37.368;127.108;2023-03-13T04:56:49;101250.22;;;5.94;nan
48029;BME280;33808;37.368;127.108;2023-03-13T04:59:19;101252.97;;;5.65;nan
48029;BME280;33808;37.368;127.108;2023-03-13T05:01:49;101241.84;;;5.15;nan
48029;BME280;33808;37.368;127.108;2023-03-13T05:04:18;101225.44;;;4.93;nan
48029;BME280;33808;37.368;127.108;2023-03-13T05:06:48;101231.44;;;5.33;nan
48029;BME280;33808;37.368;127.108;2023-03-13T05:09:18;101216.78;;;5.14;nan
48029;BME280;33808;37.368;127.108;2023-03-13T05:16:47;101227.88;;;5.64;nan
48029;BME280;33808;37.368;127.108;2023-03-13T05:19:17;101215.78;;;5.67;nan
48029;BME280;33808;37.368;127.108;2023-03-13T05:24:15;101193.44;;;5.32;nan
48029;BME280;33808;37.368;127.108;2023-03-13T05:26:45;101216.59;;;5.80;nan
48029;BME280;33808;37.368;127.108;2023-03-13T05:29:14;101199.22;;;6.04;nan
48029;BME280;33808;37.368;127.108;2023-03-13T05:31:44;101194.09;;;5.87;nan
48029;BME280;33808;37.368;127.108;2023-03-13T05:34:14;101217.28;;;6.17;nan
48029;BME280;33808;37.368;127.108;2023-03-13T05:36:43;101178.50;;;5.94;nan
48029;BME280;33808;37.368;127.108;2023-03-13T05:41:42;101192.34;;;5.96;nan
48029;BME280;33808;37.368;127.108;2023-03-13T05:44:12;101190.63;;;5.91;nan
48029;BME280;33808;37.368;127.108;2023-03-13T05:46:41;101192.28;;;6.06;nan
48029;BME280;33808;37.368;127.108;2023-03-13T05:49:11;101187.78;;;6.31;nan
48029;BME280;33808;37.368;127.108;2023-03-13T05:51:41;101184.53;;;5.99;nan
48029;BME280;33808;37.368;127.108;2023-03-13T05:54:10;101201.78;;;6.11;nan
48029;BME280;33808;37.368;127.108;2023-03-13T05:56:42;101193.09;;;6.18;nan
48029;BME280;33808;37.368;127.108;2023-03-13T05:59:13;101150.81;;;5.90;nan
48029;BME280;33808;37.368;127.108;2023-03-13T06:04:11;101203.38;;;6.31;nan
48029;BME280;33808;37.368;127.108;2023-03-13T06:06:41;101199.91;;;6.32;nan
48029;BME280;33808;37.368;127.108;2023-03-13T06:11:40;101171.00;;;6.80;nan
48029;BME280;33808;37.368;127.108;2023-03-13T06:14:10;101154.84;;;6.42;nan
48029;BME280;33808;37.368;127.108;2023-03-13T06:16:40;101179.47;;;6.95;nan
48029;BME280;33808;37.368;127.108;2023-03-13T06:19:10;101149.56;;;6.53;nan
48029;BME280;33808;37.368;127.108;2023-03-13T06:21:39;101157.41;;;6.50;nan
48029;BME280;33808;37.368;127.108;2023-03-13T06:24:09;101151.22;;;6.62;nan
48029;BME280;33808;37.368;127.108;2023-03-13T06:26:39;101161.63;;;6.62;nan
48029;BME280;33808;37.368;127.108;2023-03-13T06:29:10;101149.41;;;6.70;nan
48029;BME280;33808;37.368;127.108;2023-03-13T06:31:39;101165.28;;;6.36;nan
48029;BME280;33808;37.368;127.108;2023-03-13T06:36:43;101171.28;;;6.43;nan
48029;BME280;33808;37.368;127.108;2023-03-13T06:39:13;101157.41;;;6.44;nan
48029;BME280;33808;37.368;127.108;2023-03-13T06:41:43;101158.16;;;6.63;nan
48029;BME280;33808;37.368;127.108;2023-03-13T06:44:12;101157.25;;;6.67;nan
48029;BME280;33808;37.368;127.108;2023-03-13T06:46:42;101146.69;;;6.84;nan
48029;BME280;33808;37.368;127.108;2023-03-13T06:49:12;101148.41;;;6.85;nan
48029;BME280;33808;37.368;127.108;2023-03-13T06:51:41;101140.75;;;6.71;nan
48029;BME280;33808;37.368;127.108;2023-03-13T06:54:11;101142.50;;;6.72;nan
48029;BME280;33808;37.368;127.108;2023-03-13T06:56:41;101126.13;;;6.62;nan
48029;BME280;33808;37.368;127.108;2023-03-13T06:59:10;101127.66;;;6.82;nan
48029;BME280;33808;37.368;127.108;2023-03-13T07:01:40;101121.91;;;6.50;nan
48029;BME280;33808;37.368;127.108;2023-03-13T07:04:12;101116.78;;;6.41;nan
48029;BME280;33808;37.368;127.108;2023-03-13T07:06:41;101186.88;;;6.43;nan
48029;BME280;33808;37.368;127.108;2023-03-13T07:09:11;101132.78;;;6.88;nan
48029;BME280;33808;37.368;127.108;2023-03-13T07:11:41;101125.91;;;6.84;nan
48029;BME280;33808;37.368;127.108;2023-03-13T07:14:11;101131.34;;;6.59;nan
48029;BME280;33808;37.368;127.108;2023-03-13T07:16:44;101144.25;;;6.67;nan
48029;BME280;33808;37.368;127.108;2023-03-13T07:19:14;101121.81;;;6.63;nan
48029;BME280;33808;37.368;127.108;2023-03-13T07:21:44;101138.06;;;6.82;nan
48029;BME280;33808;37.368;127.108;2023-03-13T07:24:14;101152.22;;;6.47;nan
48029;BME280;33808;37.368;127.108;2023-03-13T07:26:44;101155.88;;;6.18;nan
48029;BME280;33808;37.368;127.108;2023-03-13T07:29:31;101152.50;;;6.07;nan
48029;BME280;33808;37.368;127.108;2023-03-13T07:32:00;101159.78;;;6.70;nan
48029;BME280;33808;37.368;127.108;2023-03-13T07:34:30;101161.34;;;6.92;nan
48029;BME280;33808;37.368;127.108;2023-03-13T07:37:00;101150.38;;;6.58;nan
48029;BME280;33808;37.368;127.108;2023-03-13T07:39:29;101198.72;;;6.77;nan
48029;BME280;33808;37.368;127.108;2023-03-13T07:41:59;101134.94;;;6.43;nan
48029;BME280;33808;37.368;127.108;2023-03-13T07:44:29;101140.78;;;6.68;nan
48029;BME280;33808;37.368;127.108;2023-03-13T07:46:59;101140.75;;;6.74;nan
48029;BME280;33808;37.368;127.108;2023-03-13T07:51:58;101116.03;;;6.27;nan
48029;BME280;33808;37.368;127.108;2023-03-13T07:54:28;101123.81;;;6.30;nan
48029;BME280;33808;37.368;127.108;2023-03-13T07:59:26;101116.81;;;6.38;nan
48029;BME280;33808;37.368;127.108;2023-03-13T08:04:25;101079.63;;;6.34;nan
48029;BME280;33808;37.368;127.108;2023-03-13T08:06:55;101097.72;;;6.42;nan
48029;BME280;33808;37.368;127.108;2023-03-13T08:09:24;101096.00;;;6.44;nan
48029;BME280;33808;37.368;127.108;2023-03-13T08:16:52;101095.69;;;6.75;nan
48029;BME280;33808;37.368;127.108;2023-03-13T08:21:51;101090.38;;;6.87;nan
48029;BME280;33808;37.368;127.108;2023-03-13T08:24:21;101079.09;;;6.88;nan
48029;BME280;33808;37.368;127.108;2023-03-13T08:26:50;101090.66;;;6.63;nan
48029;BME280;33808;37.368;127.108;2023-03-13T08:29:20;101095.69;;;6.75;nan
48029;BME280;33808;37.368;127.108;2023-03-13T08:31:50;101070.81;;;6.54;nan
48029;BME280;33808;37.368;127.108;2023-03-13T08:34:20;101067.97;;;6.77;nan
48029;BME280;33808;37.368;127.108;2023-03-13T08:36:50;101090.75;;;6.50;nan
48029;BME280;33808;37.368;127.108;2023-03-13T08:41:49;101089.06;;;6.43;nan
48029;BME280;33808;37.368;127.108;2023-03-13T08:44:19;101090.91;;;6.32;nan
48029;BME280;33808;37.368;127.108;2023-03-13T08:46:49;101097.66;;;6.51;nan
48029;BME280;33808;37.368;127.108;2023-03-13T08:51:47;101106.25;;;6.56;nan
48029;BME280;33808;37.368;127.108;2023-03-13T08:54:17;101116.78;;;6.41;nan
48029;BME280;33808;37.368;127.108;2023-03-13T08:56:47;101105.56;;;6.39;nan
48029;BME280;33808;37.368;127.108;2023-03-13T08:59:16;101090.59;;;6.64;nan
48029;BME280;33808;37.368;127.108;2023-03-13T09:01:46;101089.91;;;6.50;nan
48029;BME280;33808;37.368;127.108;2023-03-13T09:06:45;101106.41;;;6.43;nan
48029;BME280;33808;37.368;127.108;2023-03-13T09:09:14;101089.19;;;6.31;nan
48029;BME280;33808;37.368;127.108;2023-03-13T09:11:44;101096.03;;;6.38;nan
48029;BME280;33808;37.368;127.108;2023-03-13T09:14:14;101091.06;;;6.13;nan
48029;BME280;33808;37.368;127.108;2023-03-13T09:16:43;101094.56;;;6.08;nan
48029;BME280;33808;37.368;127.108;2023-03-13T09:19:15;101109.28;;;6.03;nan
48029;BME280;33808;37.368;127.108;2023-03-13T09:21:45;101107.63;;;5.92;nan
48029;BME280;33808;37.368;127.108;2023-03-13T09:24:17;101113.66;;;5.96;nan
48029;BME280;33808;37.368;127.108;2023-03-13T09:26:48;101093.88;;;5.72;nan
48029;BME280;33808;37.368;127.108;2023-03-13T09:29:27;101099.16;;;5.53;nan
48029;BME280;33808;37.368;127.108;2023-03-13T09:31:57;101119.09;;;5.50;nan
48029;BME280;33808;37.368;127.108;2023-03-13T09:34:26;101098.41;;;5.40;nan
48029;BME280;33808;37.368;127.108;2023-03-13T09:36:56;101082.75;;;5.53;nan
48029;BME280;33808;37.368;127.108;2023-03-13T09:39:25;101108.75;;;5.40;nan
48029;BME280;33808;37.368;127.108;2023-03-13T09:42:14;101103.59;;;5.34;nan
48029;BME280;33808;37.368;127.108;2023-03-13T09:44:56;101100.16;;;5.29;nan
48029;BME280;33808;37.368;127.108;2023-03-13T09:50:19;101087.25;;;5.12;nan
48029;BME280;33808;37.368;127.108;2023-03-13T09:52:58;101079.53;;;5.04;nan
48029;BME280;33808;37.368;127.108;2023-03-13T09:55:34;101098.63;;;4.67;nan
48029;BME280;33808;37.368;127.108;2023-03-13T10:00:46;101110.66;;;4.83;nan
48029;BME280;33808;37.368;127.108;2023-03-13T10:03:21;101097.72;;;4.81;nan
48029;BME280;33808;37.368;127.108;2023-03-13T10:05:57;101116.69;;;4.90;nan
48029;BME280;33808;37.368;127.108;2023-03-13T10:08:33;101124.47;;;4.94;nan
48029;BME280;33808;37.368;127.108;2023-03-13T10:19:34;101110.72;;;4.43;nan
48029;BME280;33808;37.368;127.108;2023-03-13T10:22:16;101113.31;;;4.44;nan
48029;BME280;33808;37.368;127.108;2023-03-13T10:28:13;101114.16;;;4.63;nan
48029;BME280;33808;37.368;127.108;2023-03-13T10:30:48;101131.41;;;4.71;nan
48029;BME280;33808;37.368;127.108;2023-03-13T10:33:25;101132.25;;;4.50;nan
48029;BME280;33808;37.368;127.108;2023-03-13T10:36:11;101157.28;;;4.58;nan
48029;BME280;33808;37.368;127.108;2023-03-13T10:38:52;101127.97;;;4.61;nan
48029;BME280;33808;37.368;127.108;2023-03-13T10:41:34;101159.00;;;4.69;nan
48029;BME280;33808;37.368;127.108;2023-03-13T10:46:40;101148.63;;;4.81;nan
48029;BME280;33808;37.368;127.108;2023-03-13T10:49:22;101143.47;;;4.56;nan
48029;BME280;33808;37.368;127.108;2023-03-13T10:51:57;101122.78;;;4.53;nan
48029;BME280;33808;37.368;127.108;2023-03-13T10:54:30;101138.31;;;4.47;nan
48029;BME280;33808;37.368;127.108;2023-03-13T10:59:49;101159.88;;;4.57;nan
48029;BME280;33808;37.368;127.108;2023-03-13T11:02:33;101152.97;;;4.40;nan
48029;BME280;33808;37.368;127.108;2023-03-13T11:07:56;101158.16;;;4.56;nan
48029;BME280;33808;37.368;127.108;2023-03-13T11:10:28;101134.84;;;4.53;nan
48029;BME280;33808;37.368;127.108;2023-03-13T11:12:58;101152.09;;;4.74;nan
48029;BME280;33808;37.368;127.108;2023-03-13T11:15:34;101144.34;;;4.71;nan
48029;BME280;33808;37.368;127.108;2023-03-13T11:18:29;101143.47;;;4.44;nan
48029;BME280;33808;37.368;127.108;2023-03-13T11:23:48;101122.78;;;4.53;nan
48029;BME280;33808;37.368;127.108;2023-03-13T11:35:03;101172.78;;;4.24;nan
48029;BME280;33808;37.368;127.108;2023-03-13T11:37:36;101140.91;;;4.32;nan
48029;BME280;33808;37.368;127.108;2023-03-13T11:40:24;101136.56;;;4.49;nan
48029;BME280;33808;37.368;127.108;2023-03-13T11:46:10;101097.78;;;4.35;nan
48029;BME280;33808;37.368;127.108;2023-03-13T11:51:53;101121.94;;;4.37;nan
48029;BME280;33808;37.368;127.108;2023-03-13T12:00:16;101109.84;;;4.18;nan
48029;BME280;33808;37.368;127.108;2023-03-13T12:06:01;101117.59;;;4.04;nan
48029;BME280;33808;37.368;127.108;2023-03-13T12:08:40;101114.16;;;3.94;nan
48029;BME280;33808;37.368;127.108;2023-03-13T12:17:05;101220.84;;;3.58;nan
48029;BME280;33808;37.368;127.108;2023-03-13T12:25:28;101119.28;;;3.90;nan
48029;BME280;33808;37.368;127.108;2023-03-13T12:36:25;101137.34;;;3.77;nan
48029;BME280;33808;37.368;127.108;2023-03-13T12:45:05;101127.03;;;3.88;nan
48029;BME280;33808;37.368;127.108;2023-03-13T13:04:49;101122.66;;;3.62;nan
48029;BME280;33808;37.368;127.108;2023-03-13T13:07:40;101133.84;;;3.58;nan
48029;BME280;33808;37.368;127.108;2023-03-13T13:15:21;101127.69;;;3.24;nan
48029;BME280;33808;37.368;127.108;2023-03-13T13:20:40;101139.84;;;3.45;nan
48029;BME280;33808;37.368;127.108;2023-03-13T13:39:53;101135.41;;;3.19;nan
48029;BME280;33808;37.368;127.108;2023-03-13T13:47:47;101126.94;;;3.46;nan
48029;BME280;33808;37.368;127.108;2023-03-13T13:50:25;101122.53;;;3.33;nan
48029;BME280;33808;37.368;127.108;2023-03-13T13:53:32;101112.16;;;3.18;nan
48029;BME280;33808;37.368;127.108;2023-03-13T14:04:40;101115.66;;;3.26;nan
48029;BME280;33808;37.368;127.108;2023-03-13T14:12:33;101127.69;;;3.24;nan
48029;BME280;33808;37.368;127.108;2023-03-13T14:15:13;101125.94;;;3.17;nan
48029;BME280;33808;37.368;127.108;2023-03-13T14:25:23;101103.38;;;2.82;nan
48029;BME280;33808;37.368;127.108;2023-03-13T14:27:54;101118.84;;;2.79;nan
48029;BME280;33808;37.368;127.108;2023-03-13T14:30:24;101113.63;;;2.73;nan
48029;BME280;33808;37.368;127.108;2023-03-13T14:35:24;101109.47;;;2.98;nan
48029;BME280;33808;37.368;127.108;2023-03-13T14:38:01;101103.44;;;2.94;nan
48029;BME280;33808;37.368;127.108;2023-03-13T14:40:36;101107.75;;;2.97;nan
48029;BME280;33808;37.368;127.108;2023-03-13T14:43:21;101065.66;;;3.12;nan
48029;BME280;33808;37.368;127.108;2023-03-13T14:45:53;101101.81;;;3.13;nan
48029;BME280;33808;37.368;127.108;2023-03-13T14:48:32;101168.13;;;3.22;nan
48029;BME280;33808;37.368;127.108;2023-03-13T14:51:08;101077.72;;;3.16;nan
48029;BME280;33808;37.368;127.108;2023-03-13T14:54:00;101080.31;;;3.17;nan
48029;BME280;33808;37.368;127.108;2023-03-13T14:56:35;101073.47;;;3.22;nan
48029;BME280;33808;37.368;127.108;2023-03-13T14:59:34;101083.81;;;3.30;nan
48029;BME280;33808;37.368;127.108;2023-03-13T15:02:23;101082.97;;;3.36;nan
48029;BME280;33808;37.368;127.108;2023-03-13T15:05:05;101054.59;;;3.39;nan
48029;BME280;33808;37.368;127.108;2023-03-13T15:07:45;101071.81;;;3.43;nan
48029;BME280;33808;37.368;127.108;2023-03-13T15:10:32;101153.47;;;3.16;nan
48029;BME280;33808;37.368;127.108;2023-03-13T15:15:45;101063.97;;;3.20;nan
48029;BME280;33808;37.368;127.108;2023-03-13T15:18:21;101072.59;;;3.31;nan
48029;BME280;33808;37.368;127.108;2023-03-13T15:20:52;101072.66;;;3.37;nan
48029;BME280;33808;37.368;127.108;2023-03-13T15:23:22;101039.91;;;3.36;nan
48029;BME280;33808;37.368;127.108;2023-03-13T15:28:22;101053.69;;;3.32;nan
48029;BME280;33808;37.368;127.108;2023-03-13T15:30:52;101060.63;;;3.47;nan
48029;BME280;33808;37.368;127.108;2023-03-13T15:33:23;101045.91;;;3.17;nan
48029;BME280;33808;37.368;127.108;2023-03-13T15:35:54;101147.38;;;3.05;nan
48029;BME280;33808;37.368;127.108;2023-03-13T15:40:54;101032.00;;;2.88;nan
48029;BME280;33808;37.368;127.108;2023-03-13T15:43:24;101038.13;;;3.07;nan
48029;BME280;33808;37.368;127.108;2023-03-13T15:45:54;101051.88;;;3.09;nan
48029;BME280;33808;37.368;127.108;2023-03-13T15:48:26;101051.78;;;2.88;nan
48029;BME280;33808;37.368;127.108;2023-03-13T15:51:01;101044.94;;;2.93;nan
48029;BME280;33808;37.368;127.108;2023-03-13T15:53:33;101038.03;;;2.89;nan
48029;BME280;33808;37.368;127.108;2023-03-13T15:56:13;101041.47;;;2.88;nan
48029;BME280;33808;37.368;127.108;2023-03-13T15:58:45;101044.84;;;2.81;nan
48029;BME280;33808;37.368;127.108;2023-03-13T16:01:16;101024.28;;;2.93;nan
48029;BME280;33808;37.368;127.108;2023-03-13T16:06:17;101050.97;;;2.98;nan
48029;BME280;33808;37.368;127.108;2023-03-13T16:18:51;101057.09;;;3.22;nan
48029;BME280;33808;37.368;127.108;2023-03-13T16:21:27;101140.63;;;3.35;nan
48029;BME280;33808;37.368;127.108;2023-03-13T16:23:57;101120.72;;;3.07;nan
48029;BME280;33808;37.368;127.108;2023-03-13T16:28:58;101060.56;;;3.30;nan
48029;BME280;33808;37.368;127.108;2023-03-13T16:31:30;101051.09;;;3.31;nan
48029;BME280;33808;37.368;127.108;2023-03-13T16:34:00;101056.25;;;3.29;nan
48029;BME280;33808;37.368;127.108;2023-03-13T16:36:32;101157.81;;;3.23;nan
48029;BME280;33808;37.368;127.108;2023-03-13T16:39:05;101051.88;;;3.13;nan
48029;BME280;33808;37.368;127.108;2023-03-13T16:41:36;101159.56;;;3.24;nan
48029;BME280;33808;37.368;127.108;2023-03-13T16:44:06;101056.25;;;3.27;nan
48029;BME280;33808;37.368;127.108;2023-03-13T16:46:38;101047.63;;;3.21;nan
48029;BME280;33808;37.368;127.108;2023-03-13T16:49:14;101127.69;;;3.24;nan
48029;BME280;33808;37.368;127.108;2023-03-13T16:51:44;101047.69;;;3.44;nan
48029;BME280;33808;37.368;127.108;2023-03-13T16:54:14;101044.22;;;3.40;nan
48029;BME280;33808;37.368;127.108;2023-03-13T16:56:44;101058.03;;;3.41;nan
48029;BME280;33808;37.368;127.108;2023-03-13T16:59:16;101053.69;;;3.34;nan
48029;BME280;33808;37.368;127.108;2023-03-13T17:01:47;101064.88;;;3.40;nan
48029;BME280;33808;37.368;127.108;2023-03-13T17:04:17;101058.00;;;3.38;nan
48029;BME280;33808;37.368;127.108;2023-03-13T17:06:46;101154.44;;;3.40;nan
48029;BME280;33808;37.368;127.108;2023-03-13T17:09:16;101058.91;;;3.44;nan
48029;BME280;33808;37.368;127.108;2023-03-13T17:16:44;101032.13;;;3.25;nan
48029;BME280;33808;37.368;127.108;2023-03-13T17:19:15;101042.44;;;3.15;nan
48029;BME280;33808;37.368;127.108;2023-03-13T17:21:44;101052.78;;;3.19;nan
48029;BME280;33808;37.368;127.108;2023-03-13T17:24:14;101042.41;;;3.04;nan
48029;BME280;33808;37.368;127.108;2023-03-13T17:26:44;101042.38;;;2.96;nan
48029;BME280;33808;37.368;127.108;2023-03-13T17:29:16;101046.66;;;2.91;nan
48029;BME280;33808;37.368;127.108;2023-03-13T17:34:15;101024.19;;;2.75;nan
48029;BME280;33808;37.368;127.108;2023-03-13T17:36:45;101030.22;;;2.75;nan
48029;BME280;33808;37.368;127.108;2023-03-13T17:39:16;101148.97;;;2.84;nan
48029;BME280;33808;37.368;127.108;2023-03-13T17:41:46;101018.22;;;2.88;nan
48029;BME280;33808;37.368;127.108;2023-03-13T17:44:16;101025.06;;;2.78;nan
48029;BME280;33808;37.368;127.108;2023-03-13T17:46:46;101032.06;;;3.04;nan
48029;BME280;33808;37.368;127.108;2023-03-13T17:49:17;101039.78;;;2.99;nan
48029;BME280;33808;37.368;127.108;2023-03-13T17:54:19;101011.38;;;2.98;nan
48029;BME280;33808;37.368;127.108;2023-03-13T17:56:49;101019.09;;;2.85;nan
48029;BME280;33808;37.368;127.108;2023-03-13T17:59:20;101010.50;;;2.88;nan
48029;BME280;33808;37.368;127.108;2023-03-13T18:01:49;100996.78;;;2.98;nan
48029;BME280;33808;37.368;127.108;2023-03-13T18:04:19;100997.66;;;3.08;nan
48029;BME280;33808;37.368;127.108;2023-03-13T18:06:49;100986.41;;;2.92;nan
48029;BME280;33808;37.368;127.108;2023-03-13T18:09:20;101000.16;;;2.88;nan
48029;BME280;33808;37.368;127.108;2023-03-13T18:11:50;100990.72;;;2.98;nan
48029;BME280;33808;37.368;127.108;2023-03-13T18:19:23;101003.66;;;3.02;nan
48029;BME280;33808;37.368;127.108;2023-03-13T18:21:55;100992.50;;;3.14;nan
48029;BME280;33808;37.368;127.108;2023-03-13T18:29:24;101002.06;;;3.35;nan
48029;BME280;33808;37.368;127.108;2023-03-13T18:31:58;101086.28;;;3.02;nan
48029;BME280;33808;37.368;127.108;2023-03-13T18:39:31;100998.53;;;3.12;nan
48029;BME280;33808;37.368;127.108;2023-03-13T18:42:01;100987.38;;;3.20;nan
48029;BME280;33808;37.368;127.108;2023-03-13T18:44:31;100995.13;;;3.28;nan